Mendon - 24 Hour Table
Date & TimeSolar
Radiation
(W/m²)
Wind
Speed
(mph)
Wind
Direction
(degrees)
Air
Temperature
(°F)
Relative
Humidity
(%)
Precipitation
(inches)
2019/02/17 18:00 31 0.0 288 29.0 74 0.00
2019/02/17 17:00 108 0.3 306 31.1 66 0.00
2019/02/17 16:00 235 0.8 304 31.2 59 0.00
2019/02/17 15:00 374 0.6 242 30.6 67 0.00
2019/02/17 14:00 553 0.7 305 31.1 71 0.00
2019/02/17 13:00 493 0.7 310 29.1 71 0.00
2019/02/17 12:00 480 1.5 309 27.3 80 0.03
2019/02/17 11:00 454 1.7 320 25.7 80 0.01
2019/02/17 10:00 232 0.2 77 26.7 84 0.00
2019/02/17 09:00 69 0.0 166 23.1 82 0.00
2019/02/17 08:00 3 0.0 275 19.6 97 0.00
2019/02/17 07:00 1 0.0 303 17.1 98 0.00
2019/02/17 06:00 1 0.0 285 17.3 95 0.00
2019/02/17 05:00 1 0.0 275 18.1 97 0.00
2019/02/17 04:00 1 0.0 299 16.4 96 0.00
2019/02/17 03:00 1 0.0 282 19.6 93 0.00
2019/02/17 02:00 1 0.0 281 24.0 96 0.00
2019/02/17 01:00 1 0.0 177 25.3 98 0.00
2019/02/17 00:00 1 0.0 162 25.7 97 0.00
2019/02/16 23:00 1 0.0 319 26.1 98 0.00
2019/02/16 22:00 1 0.0 328 26.2 98 0.00
2019/02/16 21:00 1 0.0 263 26.1 98 0.00
2019/02/16 20:00 1 0.0 149 26.4 98 0.00
2019/02/16 19:00 1 0.0 2 26.7 96 0.00